Time;durP1;ratioP1;P1;durP2;ratioP2;P2;SDS_P1;SDS_P2;PMS_P1;PMS_P2;Temp;Humidity;BMP_temperature;BMP_pressure;BME280_temperature;BME280_humidity;BME280_pressure;Samples;Min_cycle;Max_cycle;Signal;HPM_P1;HPM_P2
2023/07/06 00:00:37;;;;;;;8.35;2.00;;;;;;;;;;5009771;28;20030;-61
2023/07/06 00:03:03;;;;;;;5.70;1.88;;;;;;;;;;5012132;28;20079;-62
2023/07/06 00:05:29;;;;;;;6.03;2.03;;;;;;;;;;5015312;28;20074;-63
2023/07/06 00:07:56;;;;;;;6.05;1.90;;;;;;;;;;5014601;28;20426;-62
2023/07/06 00:10:22;;;;;;;4.80;1.63;;;;;;;;;;5011466;28;20029;-64
2023/07/06 00:12:47;;;;;;;4.38;1.63;;;;;;;;;;5012414;28;20025;-61
2023/07/06 00:15:12;;;;;;;6.37;2.10;;;;;;;;;;5012281;28;20405;-61
2023/07/06 00:17:38;;;;;;;6.47;2.00;;;;;;;;;;5014067;28;20037;-60
2023/07/06 00:20:12;;;;;;;6.00;2.20;;;;;;;;;;5014183;28;20391;-63
2023/07/06 00:22:38;;;;;;;6.28;2.00;;;;;;;;;;5012876;28;20088;-63
2023/07/06 00:25:03;;;;;;;5.50;1.70;;;;;;;;;;5012699;28;20493;-63
2023/07/06 00:27:29;;;;;;;5.72;1.95;;;;;;;;;;5013657;28;20097;-62
2023/07/06 00:30:03;;;;;;;5.20;1.75;;;;;;;;;;5014283;28;20018;-62
2023/07/06 00:32:31;;;;;;;5.03;1.63;;;;;;;;;;5013929;28;20057;-63
2023/07/06 00:34:57;;;;;;;4.85;1.92;;;;;;;;;;5011190;28;20018;-62
2023/07/06 00:37:22;;;;;;;5.05;1.73;;;;;;;;;;5013602;28;20021;-60
2023/07/06 00:39:50;;;;;;;6.80;2.10;;;;;;;;;;5013012;28;20026;-62
2023/07/06 00:42:16;;;;;;;6.65;2.30;;;;;;;;;;5009711;28;20402;-62
2023/07/06 00:44:55;;;;;;;4.93;2.20;;;;;;;;;;5012526;28;20029;-62
2023/07/06 00:47:40;;;;;;;5.20;2.05;;;;;;;;;;5010893;28;20032;-63
2023/07/06 00:50:13;;;;;;;5.88;2.15;;;;;;;;;;5011720;28;20374;-60
2023/07/06 00:52:41;;;;;;;5.70;1.75;;;;;;;;;;5010436;28;20033;-61
2023/07/06 00:55:07;;;;;;;4.88;1.95;;;;;;;;;;5010669;28;20038;-61
2023/07/06 00:57:34;;;;;;;5.13;1.85;;;;;;;;;;5011447;28;20596;-62
2023/07/06 01:00:00;;;;;;;7.45;2.03;;;;;;;;;;5011900;28;20524;-61
2023/07/06 01:02:27;;;;;;;7.13;1.88;;;;;;;;;;5009972;28;20030;-62
2023/07/06 01:04:53;;;;;;;;;;;;;;;;;;5012871;28;20095;-62
2023/07/06 01:07:20;;;;;;;7.40;2.20;;;;;;;;;;5010127;28;19921;-63
2023/07/06 01:09:46;;;;;;;5.15;2.28;;;;;;;;;;5011311;28;20402;-62
2023/07/06 01:12:12;;;;;;;5.38;1.65;;;;;;;;;;5011207;28;20029;-62
2023/07/06 01:14:38;;;;;;;6.00;1.90;;;;;;;;;;5011855;28;20014;-63
2023/07/06 01:17:25;;;;;;;6.97;2.30;;;;;;;;;;5009005;28;20033;-61
2023/07/06 01:19:55;;;;;;;5.10;1.98;;;;;;;;;;5011752;28;20025;-61
2023/07/06 01:22:40;;;;;;;5.95;2.03;;;;;;;;;;5011378;28;20033;-62
2023/07/06 01:25:28;;;;;;;6.88;2.00;;;;;;;;;;5011433;28;20339;-61
2023/07/06 01:27:56;;;;;;;6.07;2.40;;;;;;;;;;5007832;28;20071;-62
2023/07/06 01:30:40;;;;;;;5.47;2.00;;;;;;;;;;5006755;28;20144;-63
2023/07/06 01:33:09;;;;;;;4.32;1.92;;;;;;;;;;5009588;28;20025;-60
2023/07/06 01:35:42;;;;;;;6.40;2.30;;;;;;;;;;5010483;28;20425;-61
2023/07/06 01:38:07;;;;;;;5.32;2.15;;;;;;;;;;5011255;28;20021;-62
2023/07/06 01:40:34;;;;;;;4.87;2.00;;;;;;;;;;5011963;28;20041;-61
2023/07/06 01:42:59;;;;;;;;;;;;;;;;;;5011118;28;20014;-60
2023/07/06 01:45:24;;;;;;;5.57;2.28;;;;;;;;;;5010727;28;20364;-62
2023/07/06 01:47:51;;;;;;;5.70;2.20;;;;;;;;;;5010649;28;20105;-63
2023/07/06 01:50:19;;;;;;;6.25;2.30;;;;;;;;;;5011273;28;20021;-62
2023/07/06 01:52:50;;;;;;;7.35;2.30;;;;;;;;;;5008942;28;20022;-60
2023/07/06 01:55:31;;;;;;;6.70;2.53;;;;;;;;;;5011496;28;20405;-62
2023/07/06 01:58:07;;;;;;;5.60;2.05;;;;;;;;;;5011705;28;20033;-62
2023/07/06 02:00:34;;;;;;;6.40;2.20;;;;;;;;;;5010921;28;20026;-62
2023/07/06 02:03:00;;;;;;;5.57;2.10;;;;;;;;;;5009535;28;20018;-63
2023/07/06 02:05:26;;;;;;;6.10;2.22;;;;;;;;;;5011240;28;20033;-61
2023/07/06 02:07:52;;;;;;;7.05;2.60;;;;;;;;;;5011029;28;20128;-64
2023/07/06 02:10:18;;;;;;;6.67;2.23;;;;;;;;;;5011099;28;20119;-61
2023/07/06 02:12:47;;;;;;;5.78;2.00;;;;;;;;;;5009701;28;20072;-61
2023/07/06 02:15:12;;;;;;;5.75;2.10;;;;;;;;;;5011228;28;20010;-62
2023/07/06 02:17:38;;;;;;;5.03;2.08;;;;;;;;;;5011483;28;20033;-62
2023/07/06 02:20:03;;;;;;;5.93;2.33;;;;;;;;;;5011302;28;20429;-62
2023/07/06 02:22:28;;;;;;;6.53;2.53;;;;;;;;;;5005572;28;20117;-61
2023/07/06 02:24:54;;;;;;;10.75;2.50;;;;;;;;;;5007846;28;20033;-63
2023/07/06 02:27:19;;;;;;;7.27;2.40;;;;;;;;;;5009958;28;20505;-61
2023/07/06 02:29:44;;;;;;;6.05;2.10;;;;;;;;;;5011235;28;20018;-62
2023/07/06 02:32:09;;;;;;;4.68;1.95;;;;;;;;;;5008215;28;20033;-62
2023/07/06 02:34:35;;;;;;;4.97;1.93;;;;;;;;;;5009541;28;20116;-61
2023/07/06 02:37:00;;;;;;;6.68;2.50;;;;;;;;;;5010637;28;20877;-61
2023/07/06 02:39:25;;;;;;;7.77;2.20;;;;;;;;;;5010456;28;20422;-61
2023/07/06 02:41:54;;;;;;;6.70;2.27;;;;;;;;;;5010912;28;20037;-63
2023/07/06 02:44:20;;;;;;;6.35;1.90;;;;;;;;;;5009455;28;20481;-62
2023/07/06 02:46:45;;;;;;;5.20;1.90;;;;;;;;;;5010396;28;20025;-63
2023/07/06 02:49:10;;;;;;;7.78;2.20;;;;;;;;;;5010450;28;20494;-61
2023/07/06 02:51:35;;;;;;;6.65;2.40;;;;;;;;;;5010767;28;20105;-62
2023/07/06 02:54:01;;;;;;;4.80;2.00;;;;;;;;;;5007934;28;20037;-62
2023/07/06 02:56:26;;;;;;;5.68;2.20;;;;;;;;;;5010629;28;20129;-62
2023/07/06 02:58:51;;;;;;;6.65;2.08;;;;;;;;;;5010963;28;20104;-62
2023/07/06 03:01:18;;;;;;;5.23;2.07;;;;;;;;;;5012688;28;20389;-61
2023/07/06 03:03:43;;;;;;;5.40;2.22;;;;;;;;;;5011041;28;20468;-60
2023/07/06 03:06:08;;;;;;;7.68;2.13;;;;;;;;;;5014944;28;20543;-60
2023/07/06 03:08:34;;;;;;;5.43;2.03;;;;;;;;;;5018034;28;20030;-62
2023/07/06 03:10:59;;;;;;;6.13;2.20;;;;;;;;;;5014175;28;20048;-62
2023/07/06 03:13:28;;;;;;;5.55;2.03;;;;;;;;;;5009588;28;20156;-60
2023/07/06 03:15:53;;;;;;;5.93;1.98;;;;;;;;;;5010177;28;20079;-63
2023/07/06 03:18:18;;;;;;;5.43;2.10;;;;;;;;;;5009061;28;20413;-62
2023/07/06 03:20:46;;;;;;;6.43;2.00;;;;;;;;;;5009092;28;20036;-62
2023/07/06 03:23:11;;;;;;;5.55;2.20;;;;;;;;;;5008924;28;20421;-61
2023/07/06 03:25:36;;;;;;;6.60;2.28;;;;;;;;;;5005609;28;20025;-62
2023/07/06 03:28:02;;;;;;;5.25;2.10;;;;;;;;;;5010465;28;20033;-62
2023/07/06 03:30:27;;;;;;;6.47;2.20;;;;;;;;;;5010566;28;21691;-61
2023/07/06 03:32:54;;;;;;;5.15;1.92;;;;;;;;;;5010688;28;20029;-60
2023/07/06 03:35:22;;;;;;;5.70;2.38;;;;;;;;;;5007626;28;20101;-60
2023/07/06 03:37:47;;;;;;;6.22;2.30;;;;;;;;;;5005882;28;20060;-61
2023/07/06 03:40:13;;;;;;;6.30;2.47;;;;;;;;;;5014550;28;20026;-61
2023/07/06 03:42:44;;;;;;;7.03;2.22;;;;;;;;;;5014091;28;20109;-61
2023/07/06 03:45:10;;;;;;;7.80;2.30;;;;;;;;;;5014306;28;20029;-60
2023/07/06 03:47:37;;;;;;;5.78;2.30;;;;;;;;;;5014406;28;20528;-61
2023/07/06 03:50:02;;;;;;;5.28;2.20;;;;;;;;;;5014119;28;20041;-62
2023/07/06 03:52:28;;;;;;;6.38;2.67;;;;;;;;;;5011862;28;20057;-60
2023/07/06 03:54:53;;;;;;;6.25;2.35;;;;;;;;;;5014287;28;20094;-60
2023/07/06 03:57:19;;;;;;;8.60;2.90;;;;;;;;;;5014086;28;20041;-60
2023/07/06 03:59:44;;;;;;;5.38;2.20;;;;;;;;;;5014140;28;20013;-60
2023/07/06 04:02:10;;;;;;;7.38;2.28;;;;;;;;;;5013792;28;20097;-59
2023/07/06 04:04:35;;;;;;;7.32;2.63;;;;;;;;;;5004960;28;20398;-63
2023/07/06 04:07:00;;;;;;;7.30;2.60;;;;;;;;;;4997504;28;20165;-62
2023/07/06 04:09:26;;;;;;;6.07;2.58;;;;;;;;;;5010472;28;20029;-62
2023/07/06 04:11:52;;;;;;;5.13;2.25;;;;;;;;;;5009522;28;20030;-61
2023/07/06 04:14:21;;;;;;;7.47;2.72;;;;;;;;;;5013185;28;20444;-63
2023/07/06 04:16:46;;;;;;;6.30;2.60;;;;;;;;;;5014139;28;20022;-61
2023/07/06 04:19:11;;;;;;;6.40;2.43;;;;;;;;;;5012970;28;20025;-61
2023/07/06 04:21:36;;;;;;;5.70;2.30;;;;;;;;;;5011569;28;20025;-60
2023/07/06 04:24:04;;;;;;;8.15;2.72;;;;;;;;;;5009752;28;20024;-60
2023/07/06 04:26:29;;;;;;;6.50;2.55;;;;;;;;;;5010883;28;20100;-61
2023/07/06 04:28:54;;;;;;;6.88;2.53;;;;;;;;;;5010249;28;20121;-60
2023/07/06 04:31:19;;;;;;;6.93;2.63;;;;;;;;;;5003648;28;20034;-60
2023/07/06 04:33:45;;;;;;;6.88;2.75;;;;;;;;;;5006328;28;20108;-61
2023/07/06 04:36:11;;;;;;;6.57;2.42;;;;;;;;;;5008401;28;20033;-62
2023/07/06 04:38:36;;;;;;;7.27;2.57;;;;;;;;;;5008739;28;20026;-62
2023/07/06 04:41:01;;;;;;;6.82;2.70;;;;;;;;;;5003676;28;20460;-61
2023/07/06 04:43:26;;;;;;;6.83;2.57;;;;;;;;;;5008787;28;20092;-61
2023/07/06 04:45:54;;;;;;;6.60;2.60;;;;;;;;;;5008640;28;20456;-62
2023/07/06 04:48:19;;;;;;;6.10;2.45;;;;;;;;;;5008444;28;20472;-59
2023/07/06 04:50:45;;;;;;;6.43;2.40;;;;;;;;;;5009677;28;20030;-62
2023/07/06 04:53:10;;;;;;;6.20;2.73;;;;;;;;;;5004508;28;20029;-63
2023/07/06 04:55:35;;;;;;;7.30;2.60;;;;;;;;;;5007416;28;20642;-62
2023/07/06 04:58:01;;;;;;;6.60;2.60;;;;;;;;;;5005969;28;20026;-62
2023/07/06 05:00:30;;;;;;;7.18;2.55;;;;;;;;;;5004584;28;20076;-63
2023/07/06 05:02:58;;;;;;;6.80;2.45;;;;;;;;;;5007141;28;20026;-61
2023/07/06 05:05:24;;;;;;;6.57;2.70;;;;;;;;;;5002837;28;20108;-62
2023/07/06 05:07:50;;;;;;;8.18;2.53;;;;;;;;;;5006236;28;20084;-62
2023/07/06 05:10:15;;;;;;;6.68;2.60;;;;;;;;;;5006989;28;20477;-61
2023/07/06 05:12:41;;;;;;;9.23;2.70;;;;;;;;;;5007950;28;20026;-59
2023/07/06 05:15:06;;;;;;;6.43;2.72;;;;;;;;;;5009255;28;20474;-63
2023/07/06 05:17:32;;;;;;;7.35;2.47;;;;;;;;;;5007455;28;20022;-61
2023/07/06 05:19:58;;;;;;;7.78;2.75;;;;;;;;;;5010160;28;20018;-61
2023/07/06 05:22:23;;;;;;;6.25;2.40;;;;;;;;;;5011345;28;20634;-61
2023/07/06 05:24:49;;;;;;;9.07;2.90;;;;;;;;;;5007218;28;20030;-68
2023/07/06 05:27:14;;;;;;;6.45;2.30;;;;;;;;;;5014041;28;20034;-68
2023/07/06 05:29:39;;;;;;;5.10;2.20;;;;;;;;;;5024678;28;20102;-65
2023/07/06 05:32:04;;;;;;;6.73;2.50;;;;;;;;;;5023381;28;20022;-67
2023/07/06 05:34:29;;;;;;;7.68;2.53;;;;;;;;;;5022385;28;20030;-66
2023/07/06 05:36:54;;;;;;;6.03;2.25;;;;;;;;;;5024455;28;20033;-67
2023/07/06 05:39:20;;;;;;;6.22;2.33;;;;;;;;;;5024592;28;20037;-66
2023/07/06 05:41:45;;;;;;;7.73;2.67;;;;;;;;;;5013101;28;20065;-65
2023/07/06 05:44:10;;;;;;;6.72;2.42;;;;;;;;;;5007353;28;20147;-67
2023/07/06 05:46:35;;;;;;;8.05;2.30;;;;;;;;;;5002190;28;20020;-67
2023/07/06 05:49:00;;;;;;;6.10;2.60;;;;;;;;;;5007205;28;20030;-66
2023/07/06 05:51:26;;;;;;;6.43;2.22;;;;;;;;;;5011301;28;20724;-67
2023/07/06 05:53:51;;;;;;;6.90;2.30;;;;;;;;;;5011483;28;20026;-67
2023/07/06 05:56:18;;;;;;;5.10;2.10;;;;;;;;;;5004960;28;20054;-68
2023/07/06 05:58:44;;;;;;;5.70;2.05;;;;;;;;;;4996010;28;20101;-67
2023/07/06 06:01:09;;;;;;;5.68;2.05;;;;;;;;;;5003439;28;20034;-68
2023/07/06 06:03:35;;;;;;;5.50;2.08;;;;;;;;;;5008145;28;20431;-66
2023/07/06 06:06:01;;;;;;;5.80;2.28;;;;;;;;;;5007620;28;20023;-67
2023/07/06 06:08:26;;;;;;;4.60;1.92;;;;;;;;;;4994696;28;20026;-66
2023/07/06 06:10:51;;;;;;;6.07;2.30;;;;;;;;;;4992135;28;20026;-68
2023/07/06 06:13:16;;;;;;;7.13;1.92;;;;;;;;;;4991567;28;20022;-68
2023/07/06 06:15:42;;;;;;;6.30;2.30;;;;;;;;;;4996004;28;20097;-66
2023/07/06 06:18:07;;;;;;;5.57;1.87;;;;;;;;;;5007543;28;20045;-68
2023/07/06 06:20:32;;;;;;;9.23;2.50;;;;;;;;;;5008967;28;20022;-67
2023/07/06 06:23:00;;;;;;;8.20;2.57;;;;;;;;;;4993188;28;20375;-69
2023/07/06 06:25:25;;;;;;;6.35;2.20;;;;;;;;;;4998137;28;20563;-68
2023/07/06 06:27:51;;;;;;;6.13;2.03;;;;;;;;;;5015874;28;20021;-67
2023/07/06 06:30:16;;;;;;;6.28;2.00;;;;;;;;;;5009985;28;20084;-67
2023/07/06 06:32:42;;;;;;;6.93;2.30;;;;;;;;;;5009687;28;20060;-67
2023/07/06 06:35:31;;;;;;;6.45;2.03;;;;;;;;;;5011267;28;20437;-67
2023/07/06 06:37:59;;;;;;;6.18;2.08;;;;;;;;;;5011141;28;20058;-68
2023/07/06 06:40:25;;;;;;;6.13;2.10;;;;;;;;;;5010996;28;20028;-67
2023/07/06 06:42:51;;;;;;;7.13;2.10;;;;;;;;;;5023298;28;20401;-67
2023/07/06 06:45:16;;;;;;;5.80;2.20;;;;;;;;;;5026710;28;20393;-68
2023/07/06 06:47:41;;;;;;;5.25;1.70;;;;;;;;;;5001367;28;20034;-67
2023/07/06 06:50:08;;;;;;;5.85;1.85;;;;;;;;;;5010574;28;20021;-67
2023/07/06 06:52:34;;;;;;;5.13;1.77;;;;;;;;;;5013546;28;20029;-69
2023/07/06 06:54:59;;;;;;;7.90;1.83;;;;;;;;;;5030820;28;20105;-66
2023/07/06 06:57:24;;;;;;;5.90;1.85;;;;;;;;;;5018946;28;20033;-67
2023/07/06 06:59:49;;;;;;;7.68;1.90;;;;;;;;;;5010873;28;20040;-67
2023/07/06 07:02:15;;;;;;;8.30;2.00;;;;;;;;;;5006096;28;20173;-62
2023/07/06 07:04:40;;;;;;;4.82;1.77;;;;;;;;;;5010081;28;20026;-62
2023/07/06 07:07:06;;;;;;;6.45;1.83;;;;;;;;;;5007457;28;20121;-61
2023/07/06 07:09:32;;;;;;;4.35;1.40;;;;;;;;;;5011072;28;20065;-62
2023/07/06 07:11:57;;;;;;;3.53;1.30;;;;;;;;;;5014452;28;20022;-63
2023/07/06 07:14:22;;;;;;;4.18;1.23;;;;;;;;;;5017197;28;20018;-62
2023/07/06 07:16:47;;;;;;;4.25;1.48;;;;;;;;;;5017136;28;20469;-61
2023/07/06 07:19:14;;;;;;;4.35;1.60;;;;;;;;;;5017393;28;20104;-62
2023/07/06 07:21:39;;;;;;;6.28;1.40;;;;;;;;;;5015669;28;20030;-62
2023/07/06 07:24:04;;;;;;;4.00;1.40;;;;;;;;;;5016456;28;20713;-62
2023/07/06 07:26:30;;;;;;;4.57;1.47;;;;;;;;;;5015776;28;20030;-61
2023/07/06 07:28:55;;;;;;;5.13;1.35;;;;;;;;;;5017083;28;20026;-61
2023/07/06 07:31:22;;;;;;;4.15;1.50;;;;;;;;;;5014329;28;20045;-62
2023/07/06 07:33:47;;;;;;;5.25;1.60;;;;;;;;;;5016660;28;20440;-64
2023/07/06 07:36:13;;;;;;;4.50;1.40;;;;;;;;;;5017159;28;20022;-62
2023/07/06 07:38:39;;;;;;;4.72;1.40;;;;;;;;;;5017853;28;20073;-61
2023/07/06 07:41:06;;;;;;;4.40;1.50;;;;;;;;;;5013233;28;20474;-60
2023/07/06 07:43:32;;;;;;;4.78;1.40;;;;;;;;;;5016388;28;20433;-62
2023/07/06 07:45:57;;;;;;;;;;;;;;;;;;5017666;28;20038;-63
2023/07/06 07:48:23;;;;;;;5.63;1.50;;;;;;;;;;5017188;28;19909;-61
2023/07/06 07:50:50;;;;;;;3.85;1.20;;;;;;;;;;5018346;28;20026;-62
2023/07/06 07:53:15;;;;;;;3.75;1.20;;;;;;;;;;5017214;28;20100;-63
2023/07/06 07:55:41;;;;;;;3.97;1.33;;;;;;;;;;5018308;28;20037;-61
2023/07/06 07:58:06;;;;;;;4.00;1.40;;;;;;;;;;5024125;28;20440;-61
2023/07/06 08:00:32;;;;;;;4.40;1.43;;;;;;;;;;5019964;28;20386;-63
2023/07/06 08:02:57;;;;;;;6.70;1.58;;;;;;;;;;5013601;28;20125;-62
2023/07/06 08:05:23;;;;;;;4.82;1.50;;;;;;;;;;4997433;28;20466;-62
2023/07/06 08:07:48;;;;;;;3.45;1.20;;;;;;;;;;4997138;28;20029;-62
2023/07/06 08:10:14;;;;;;;4.03;1.30;;;;;;;;;;5007226;28;20104;-63
2023/07/06 08:12:39;;;;;;;4.03;1.20;;;;;;;;;;5016130;28;20069;-62
2023/07/06 08:15:04;;;;;;;4.10;1.10;;;;;;;;;;5017304;28;20018;-62
2023/07/06 08:17:30;;;;;;;4.97;1.30;;;;;;;;;;5015832;28;20040;-64
2023/07/06 08:19:55;;;;;;;4.67;1.43;;;;;;;;;;5016845;28;20045;-62
2023/07/06 08:22:22;;;;;;;5.05;1.38;;;;;;;;;;5015146;28;20018;-63
2023/07/06 08:24:47;;;;;;;4.47;1.35;;;;;;;;;;5012959;28;20061;-63
2023/07/06 08:27:13;;;;;;;4.50;1.20;;;;;;;;;;5011427;28;20058;-61
2023/07/06 08:29:43;;;;;;;4.37;1.40;;;;;;;;;;5013818;28;20014;-64
2023/07/06 08:32:11;;;;;;;6.68;1.33;;;;;;;;;;5012901;28;20448;-60
2023/07/06 08:34:37;;;;;;;4.93;1.20;;;;;;;;;;5013161;28;20112;-61
2023/07/06 08:37:02;;;;;;;4.53;1.07;;;;;;;;;;5013520;28;20481;-63
2023/07/06 08:39:27;;;;;;;4.27;1.20;;;;;;;;;;5013120;28;20034;-63
2023/07/06 08:41:53;;;;;;;4.93;1.13;;;;;;;;;;5011944;28;20466;-62
2023/07/06 08:44:19;;;;;;;5.18;1.35;;;;;;;;;;5012082;28;20037;-62
2023/07/06 08:46:45;;;;;;;3.85;1.20;;;;;;;;;;5013574;28;20161;-63
2023/07/06 08:49:17;;;;;;;7.43;1.58;;;;;;;;;;5012864;28;20437;-63
2023/07/06 08:51:44;;;;;;;4.70;1.38;;;;;;;;;;5013218;28;20110;-64
2023/07/06 08:54:23;;;;;;;5.10;1.30;;;;;;;;;;5012801;28;20013;-62
2023/07/06 08:56:49;;;;;;;5.38;1.52;;;;;;;;;;5007848;28;20030;-61
2023/07/06 08:59:35;;;;;;;6.30;1.25;;;;;;;;;;5005302;28;20075;-63
2023/07/06 09:02:08;;;;;;;3.97;1.30;;;;;;;;;;5005395;28;20053;-63
2023/07/06 09:04:33;;;;;;;4.03;1.27;;;;;;;;;;5012957;28;20036;-64
2023/07/06 09:06:59;;;;;;;4.97;1.40;;;;;;;;;;5012705;28;20021;-63
2023/07/06 09:09:24;;;;;;;5.63;1.38;;;;;;;;;;5006221;28;20022;-62
2023/07/06 09:11:50;;;;;;;4.57;1.30;;;;;;;;;;5012464;28;20041;-62
2023/07/06 09:14:18;;;;;;;4.07;1.40;;;;;;;;;;5012072;28;20030;-62
2023/07/06 09:16:45;;;;;;;3.70;1.20;;;;;;;;;;5012447;28;20066;-62
2023/07/06 09:19:12;;;;;;;6.75;1.40;;;;;;;;;;5012967;28;20030;-62
2023/07/06 09:21:38;;;;;;;4.45;1.30;;;;;;;;;;5012462;28;20032;-61
2023/07/06 09:24:03;;;;;;;3.60;1.20;;;;;;;;;;5010506;28;20395;-63
2023/07/06 09:26:33;;;;;;;4.97;1.70;;;;;;;;;;5012445;28;20022;-62
2023/07/06 09:29:18;;;;;;;5.53;1.23;;;;;;;;;;5012781;28;20080;-62
2023/07/06 09:31:44;;;;;;;4.70;1.35;;;;;;;;;;5012040;28;20026;-64
2023/07/06 09:34:41;;;;;;;6.85;1.60;;;;;;;;;;5011836;28;20377;-64
2023/07/06 09:37:09;;;;;;;4.65;1.30;;;;;;;;;;5006632;28;20049;-63
2023/07/06 09:39:35;;;;;;;3.47;1.20;;;;;;;;;;5010492;28;20018;-63
2023/07/06 09:42:01;;;;;;;4.00;1.30;;;;;;;;;;5012024;28;20033;-61
2023/07/06 09:44:29;;;;;;;4.57;1.40;;;;;;;;;;5011634;28;20036;-63
2023/07/06 09:46:57;;;;;;;4.53;1.30;;;;;;;;;;5012298;28;20018;-60
2023/07/06 09:49:27;;;;;;;5.28;1.30;;;;;;;;;;5012209;28;20014;-62
2023/07/06 09:51:56;;;;;;;3.83;1.40;;;;;;;;;;5010788;28;20470;-61
2023/07/06 09:54:33;;;;;;;4.43;1.50;;;;;;;;;;5011193;28;20478;-62
2023/07/06 09:57:00;;;;;;;4.80;1.50;;;;;;;;;;5011867;28;20405;-62
2023/07/06 09:59:25;;;;;;;5.72;1.58;;;;;;;;;;5011877;28;20465;-64
2023/07/06 10:01:56;;;;;;;4.83;1.40;;;;;;;;;;5005136;28;20026;-62
2023/07/06 10:04:21;;;;;;;6.68;1.65;;;;;;;;;;5006970;28;20398;-63
2023/07/06 10:06:53;;;;;;;4.95;1.50;;;;;;;;;;5011885;28;20022;-62
2023/07/06 10:09:24;;;;;;;5.13;1.30;;;;;;;;;;5010444;28;20030;-62
2023/07/06 10:11:55;;;;;;;4.65;1.40;;;;;;;;;;5011867;28;20014;-62
2023/07/06 10:14:33;;;;;;;5.75;1.52;;;;;;;;;;5010378;28;20084;-61
2023/07/06 10:16:58;;;;;;;;;;;;;;;;;;5012946;28;20523;-63
2023/07/06 10:19:29;;;;;;;3.55;1.20;;;;;;;;;;5012799;28;20369;-63
2023/07/06 10:21:58;;;;;;;6.00;1.40;;;;;;;;;;5009288;28;20017;-62
2023/07/06 10:24:42;;;;;;;4.00;1.23;;;;;;;;;;5015224;28;20041;-61
2023/07/06 10:27:11;;;;;;;5.75;1.40;;;;;;;;;;5003989;28;20024;-62
2023/07/06 10:29:39;;;;;;;4.60;1.48;;;;;;;;;;5010720;28;20041;-63
2023/07/06 10:32:09;;;;;;;3.22;1.25;;;;;;;;;;5009516;28;20037;-61
2023/07/06 10:34:44;;;;;;;5.50;1.40;;;;;;;;;;4998863;28;20038;-62
2023/07/06 10:37:12;;;;;;;4.03;1.30;;;;;;;;;;4998253;28;20125;-61
2023/07/06 10:39:43;;;;;;;6.10;1.38;;;;;;;;;;5008221;28;20029;-62
2023/07/06 10:42:21;;;;;;;4.28;1.27;;;;;;;;;;5010274;28;20025;-61
2023/07/06 10:44:49;;;;;;;5.30;1.27;;;;;;;;;;5010909;28;20022;-61
2023/07/06 10:47:33;;;;;;;4.03;1.27;;;;;;;;;;5010523;28;20053;-64
2023/07/06 10:50:07;;;;;;;4.70;1.35;;;;;;;;;;5010957;28;20026;-62
2023/07/06 10:52:35;;;;;;;4.80;1.40;;;;;;;;;;5008310;28;20018;-63
2023/07/06 10:55:01;;;;;;;4.20;1.23;;;;;;;;;;5007902;28;20049;-64
2023/07/06 10:57:33;;;;;;;3.60;1.20;;;;;;;;;;5007935;28;20061;-62
2023/07/06 11:00:13;;;;;;;5.93;1.20;;;;;;;;;;5007982;28;20186;-63
2023/07/06 11:02:40;;;;;;;5.68;1.15;;;;;;;;;;5004260;28;20465;-62
2023/07/06 11:05:24;;;;;;;6.85;1.65;;;;;;;;;;5010772;28;20366;-64
2023/07/06 11:07:50;;;;;;;5.65;1.35;;;;;;;;;;5010609;28;20485;-63
2023/07/06 11:10:23;;;;;;;3.83;1.35;;;;;;;;;;5010907;28;20111;-61
2023/07/06 11:13:15;;;;;;;3.80;1.30;;;;;;;;;;5010033;28;20037;-62
2023/07/06 11:15:46;;;;;;;4.18;1.50;;;;;;;;;;5009228;28;20022;-62
2023/07/06 11:18:16;;;;;;;5.97;1.55;;;;;;;;;;5001277;28;20033;-61
2023/07/06 11:20:43;;;;;;;4.10;1.23;;;;;;;;;;5009332;28;20399;-63
2023/07/06 11:23:16;;;;;;;4.05;1.40;;;;;;;;;;5010070;28;20018;-63
2023/07/06 11:25:44;;;;;;;5.45;1.60;;;;;;;;;;5010774;28;20026;-62
2023/07/06 11:28:12;;;;;;;4.50;1.20;;;;;;;;;;5010563;28;20034;-62
2023/07/06 11:30:56;;;;;;;5.50;1.60;;;;;;;;;;5009127;28;20033;-63
2023/07/06 11:33:26;;;;;;;3.85;1.27;;;;;;;;;;5009932;28;20090;-63
2023/07/06 11:35:51;;;;;;;6.97;1.50;;;;;;;;;;5007568;28;20485;-62
2023/07/06 11:38:16;;;;;;;5.50;1.50;;;;;;;;;;5010746;28;20101;-62
2023/07/06 11:41:09;;;;;;;4.95;1.40;;;;;;;;;;5010375;28;20026;-63
2023/07/06 11:43:40;;;;;;;4.68;1.50;;;;;;;;;;5008074;28;20049;-63
2023/07/06 11:46:24;;;;;;;6.88;1.45;;;;;;;;;;5010463;28;20038;-63
2023/07/06 11:49:09;;;;;;;4.60;1.20;;;;;;;;;;5010483;28;20030;-62
2023/07/06 11:51:36;;;;;;;6.93;1.48;;;;;;;;;;5010514;28;20022;-64
2023/07/06 11:54:05;;;;;;;4.30;1.20;;;;;;;;;;5009731;28;20084;-63
2023/07/06 11:56:50;;;;;;;3.75;1.40;;;;;;;;;;5008147;28;20456;-61
2023/07/06 11:59:36;;;;;;;5.45;1.67;;;;;;;;;;5005046;28;20374;-63
2023/07/06 12:02:07;;;;;;;3.47;1.20;;;;;;;;;;5010783;28;20033;-62
2023/07/06 12:04:34;;;;;;;3.65;1.35;;;;;;;;;;5013122;28;20496;-62
2023/07/06 12:07:08;;;;;;;5.07;1.48;;;;;;;;;;5014370;28;20466;-63
2023/07/06 12:09:34;;;;;;;4.63;1.33;;;;;;;;;;5014212;28;20465;-63
2023/07/06 12:11:59;;;;;;;;;;;;;;;;;;5014309;28;20042;-62
2023/07/06 12:14:24;;;;;;;4.80;1.33;;;;;;;;;;5012980;28;20040;-62
2023/07/06 12:16:50;;;;;;;4.80;1.10;;;;;;;;;;5010274;28;20037;-63
2023/07/06 12:19:17;;;;;;;4.65;1.40;;;;;;;;;;5002943;28;20557;-63
2023/07/06 12:21:45;;;;;;;5.00;1.30;;;;;;;;;;5010943;28;20036;-62
2023/07/06 12:24:14;;;;;;;4.47;1.20;;;;;;;;;;5003393;28;20033;-63
2023/07/06 12:27:02;;;;;;;4.10;1.30;;;;;;;;;;5007494;28;20057;-62
2023/07/06 12:29:31;;;;;;;4.90;1.52;;;;;;;;;;5003769;28;20145;-62
2023/07/06 12:32:09;;;;;;;4.70;1.35;;;;;;;;;;5007580;28;20147;-61
2023/07/06 12:34:35;;;;;;;6.18;1.52;;;;;;;;;;5009562;28;20034;-61
2023/07/06 12:37:02;;;;;;;3.67;1.20;;;;;;;;;;5007009;28;20022;-62
2023/07/06 12:39:27;;;;;;;3.75;1.20;;;;;;;;;;5013261;28;20136;-62
2023/07/06 12:41:54;;;;;;;4.10;1.25;;;;;;;;;;5011102;28;20110;-62
2023/07/06 12:44:21;;;;;;;3.67;1.33;;;;;;;;;;5013449;28;20076;-62
2023/07/06 12:47:01;;;;;;;6.13;1.52;;;;;;;;;;5015227;28;20422;-62
2023/07/06 12:49:27;;;;;;;3.58;1.20;;;;;;;;;;5007432;28;20041;-62
2023/07/06 12:51:55;;;;;;;;;;;;;;;;;;5007793;28;20108;-62
2023/07/06 12:54:27;;;;;;;3.85;1.38;;;;;;;;;;5008172;28;19909;-61
2023/07/06 12:56:58;;;;;;;4.13;1.30;;;;;;;;;;5010547;28;20026;-63
2023/07/06 12:59:31;;;;;;;3.92;1.30;;;;;;;;;;5010540;28;20046;-62
2023/07/06 13:01:56;;;;;;;4.60;1.45;;;;;;;;;;5013092;28;20052;-62
2023/07/06 13:04:22;;;;;;;4.40;1.45;;;;;;;;;;5012660;28;20053;-63
2023/07/06 13:06:48;;;;;;;;;;;;;;;;;;5010955;28;20069;-61
2023/07/06 13:09:17;;;;;;;6.03;1.70;;;;;;;;;;5012499;28;20340;-62
2023/07/06 13:11:45;;;;;;;4.38;1.40;;;;;;;;;;5013295;28;20026;-62
2023/07/06 13:14:14;;;;;;;4.95;1.20;;;;;;;;;;5012747;28;20152;-62
2023/07/06 13:16:40;;;;;;;4.07;1.30;;;;;;;;;;5013247;28;20017;-62
2023/07/06 13:19:06;;;;;;;4.90;1.33;;;;;;;;;;5008244;28;20037;-63
2023/07/06 13:21:33;;;;;;;;;;;;;;;;;;5012912;28;20018;-62
2023/07/06 13:23:58;;;;;;;5.47;1.20;;;;;;;;;;5011405;28;20008;-62
2023/07/06 13:26:26;;;;;;;4.70;1.27;;;;;;;;;;5012823;28;20097;-63
2023/07/06 13:28:52;;;;;;;3.90;1.13;;;;;;;;;;5012554;28;20403;-62
2023/07/06 13:31:19;;;;;;;5.78;1.40;;;;;;;;;;5005927;28;20014;-63
2023/07/06 13:33:44;;;;;;;5.30;1.40;;;;;;;;;;5010824;28;20017;-61
2023/07/06 13:36:13;;;;;;;5.88;1.67;;;;;;;;;;5015500;28;20049;-64
2023/07/06 13:38:38;;;;;;;2.97;1.20;;;;;;;;;;5012526;28;20030;-63
2023/07/06 13:41:04;;;;;;;4.90;1.20;;;;;;;;;;5014595;28;20502;-61
2023/07/06 13:43:30;;;;;;;3.28;1.30;;;;;;;;;;5011807;28;20033;-62
2023/07/06 13:45:56;;;;;;;3.42;1.10;;;;;;;;;;5017136;28;20017;-62
2023/07/06 13:48:23;;;;;;;5.18;1.40;;;;;;;;;;5013161;28;20040;-62
2023/07/06 13:50:48;;;;;;;4.32;1.30;;;;;;;;;;5014512;28;20017;-62
2023/07/06 13:53:13;;;;;;;4.97;1.20;;;;;;;;;;5015825;28;20105;-63
2023/07/06 13:55:50;;;;;;;8.73;1.47;;;;;;;;;;5012823;28;20078;-62
2023/07/06 13:58:16;;;;;;;4.53;1.20;;;;;;;;;;5003083;28;20557;-62
2023/07/06 14:00:42;;;;;;;3.78;1.40;;;;;;;;;;5010838;28;20037;-62
2023/07/06 14:03:08;;;;;;;5.18;1.48;;;;;;;;;;5010037;28;20025;-61
2023/07/06 14:05:33;;;;;;;5.85;1.30;;;;;;;;;;5008729;28;20076;-63
2023/07/06 14:07:58;;;;;;;;;;;;;;;;;;5010355;28;20113;-62
2023/07/06 14:10:23;;;;;;;3.45;1.30;;;;;;;;;;5011655;28;19912;-62
2023/07/06 14:12:49;;;;;;;8.48;1.40;;;;;;;;;;5011288;28;20121;-63
2023/07/06 14:15:15;;;;;;;4.90;1.60;;;;;;;;;;5011420;28;20072;-62
2023/07/06 14:17:42;;;;;;;4.60;1.33;;;;;;;;;;5011940;28;20049;-62
2023/07/06 14:20:08;;;;;;;4.93;1.30;;;;;;;;;;5011558;28;20030;-63
2023/07/06 14:22:33;;;;;;;5.65;1.35;;;;;;;;;;5003532;28;20022;-63
2023/07/06 14:24:58;;;;;;;4.10;1.50;;;;;;;;;;5011927;28;20378;-64
2023/07/06 14:27:25;;;;;;;;;;;;;;;;;;5003863;28;20106;-60
2023/07/06 14:29:50;;;;;;;4.95;1.50;;;;;;;;;;5011458;28;20389;-62
2023/07/06 14:32:15;;;;;;;3.35;1.20;;;;;;;;;;5010084;28;20112;-63
2023/07/06 14:34:47;;;;;;;3.38;1.27;;;;;;;;;;5012192;28;20060;-63
2023/07/06 14:37:12;;;;;;;5.65;1.38;;;;;;;;;;5011865;28;20030;-63
2023/07/06 14:39:37;;;;;;;4.38;1.33;;;;;;;;;;5011576;28;20033;-62
2023/07/06 14:42:03;;;;;;;4.97;1.55;;;;;;;;;;5009224;28;20477;-62
2023/07/06 14:44:28;;;;;;;6.63;1.50;;;;;;;;;;5010338;28;20026;-62
2023/07/06 14:46:54;;;;;;;3.63;1.17;;;;;;;;;;5008303;28;20109;-62
2023/07/06 14:49:19;;;;;;;3.50;1.40;;;;;;;;;;5011582;28;20030;-63